Estación Meteorológica Peña el Pijo (Robertgarden) [ 12/11/19 23:04:39 CET ]

Fecha Hora Presion(HPa) Temp (°C) Humedad % Rocio (°C) Viento ( m/s) Direccion Lluvia 1Hora(mm) Lluvia 24H(mm) LLuvia Total(mm)
2019-Sep-16 01:02:08 1012.500 17.4 88 15.4         482.48
2019-Sep-16 02:01:48 1012.200 17.3 89 15.5         482.48
2019-Sep-16 03:03:14 1011.900 17.4 89 15.6         482.48
2019-Sep-16 04:04:18 1011.500 16.1 89 14.3         482.48
2019-Sep-16 05:01:59 1011.500 16.1 90 14.5         482.48
2019-Sep-16 06:01:46 1011.400 16.1 91 14.7         482.48
2019-Sep-16 07:01:49 1011.600 14.9 91 13.5         482.48
2019-Sep-16 08:01:48 1012.000 14.9 91 13.5         482.48
2019-Sep-16 09:02:04 1012.200 15.0 92 13.7         482.48
2019-Sep-16 10:01:46 1012.700 18.1 92 16.8         482.48
2019-Sep-16 11:01:49 1012.600 21.8 78 17.8         482.48
2019-Sep-16 12:01:49 1012.700 24.1 64 16.8         482.48
2019-Sep-16 13:01:50 1012.300 26.6 55 16.8         482.48
2019-Sep-16 14:01:47 1012.300 24.4 59 15.9         482.48
2019-Sep-16 15:01:47 1011.400 26.9 54 16.8         482.48
2019-Sep-16 16:01:53 1011.100 26.4 54 16.3         482.48
2019-Sep-16 17:02:10 1010.800 27.2 51 16.2         482.48
2019-Sep-16 18:01:53 1010.500 25.6 55 15.9         482.48
2019-Sep-16 19:01:37 1010.800 25.1 57 15.9 1.6 WSW     482.48
2019-Sep-16 20:01:41 1011.100 21.9 68 15.7         482.48
2019-Sep-16 21:01:57 1011.500 20.1 75 15.6         482.48
2019-Sep-16 22:01:30 1012.100 19.8 78 15.9         482.48
2019-Sep-16 23:01:31 1012.400 18.6 80 15.1         482.48

Temperatura Máxima:27°    Temperatura Mínima:14°
Presión Máxima:1012.700 Hpa    Presión Mínima:1010.500 Hpa


Volver